Data for 08/19/2015

Time Sea-Level Adjusted Pressure Absolute Pressure Temperature Relative Humidity Dew Point   
(mb) (inHg) (mb) (inHg) (C) (F) (%) (C) (F)
00:05 1023 30.21 852 25.16 9.1 48.4 70 3.9 39
00:10 1023 30.21 852 25.16 9.1 48.4 69 3.8 38.8
00:15 1023 30.21 852 25.16 9 48.2 69 3.6 38.6
00:20 1023 30.21 852 25.16 9 48.1 69 3.6 38.5
00:25 1023 30.21 852 25.16 8.9 48.1 69 3.5 38.3
00:30 1023 30.21 852 25.16 8.8 47.8 69 3.4 38.2
00:35 1023 30.21 852 25.16 8.7 47.7 69 3.3 38
00:40 1023 30.21 852 25.16 8.7 47.7 68 3.2 37.7
00:45 1023 30.21 852 25.16 8.9 47.9 66 3 37.3
00:50 1023 30.21 852 25.16 9.2 48.6 65 3.1 37.6
00:55 1023 30.21 852 25.16 9.2 48.6 64 2.8 37.1
01:00 1023 30.21 852 25.16 9.1 48.4 65 2.8 37.1
01:05 1023 30.21 852 25.16 9.2 48.5 65 2.9 37.2
01:10 1023 30.21 852 25.16 9.1 48.4 65 3 37.4
01:15 1022 30.18 852 25.16 8.8 47.9 67 3.1 37.6
01:20 1022 30.18 852 25.16 8.7 47.7 67 3.1 37.5
01:25 1022 30.18 852 25.16 8.6 47.5 68 3.2 37.7
01:30 1022 30.18 852 25.16 8.4 47.2 69 3.1 37.6
01:35 1022 30.18 852 25.16 8.1 46.6 70 3 37.5
01:40 1022 30.18 852 25.16 7.9 46.2 70 2.8 37.1
01:45 1022 30.18 851 25.13 8.1 46.6 69 2.8 37.1
01:50 1022 30.18 851 25.13 8.2 46.8 69 2.9 37.2
01:55 1022 30.18 851 25.13 8 46.4 70 3 37.4
02:00 1022 30.18 851 25.13 7.8 46.1 71 2.8 37.1
02:05 1022 30.18 851 25.13 7.7 45.9 71 2.7 36.9
02:10 1022 30.18 851 25.13 7.7 45.8 72 2.9 37.2
02:15 1022 30.18 851 25.13 7.4 45.2 72 2.7 36.9
02:20 1022 30.18 851 25.13 7.3 45.1 72 2.5 36.6
02:25 1022 30.18 851 25.13 7.4 45.4 70 2.4 36.3
02:30 1022 30.18 851 25.13 7.5 45.5 71 2.6 36.6
02:35 1022 30.18 851 25.13 7.5 45.6 71 2.7 36.8
02:40 1022 30.18 851 25.13 7.7 45.9 71 2.8 37
02:45 1022 30.18 851 25.13 7.5 45.6 73 2.9 37.3
02:50 1022 30.18 851 25.13 7.5 45.5 72 2.7 36.9
02:55 1022 30.18 851 25.13 7.5 45.5 72 2.8 37.1
03:00 1022 30.18 851 25.13 7.3 45.2 74 2.9 37.3
03:05 1022 30.18 851 25.13 7 44.5 75 2.8 37
03:10 1022 30.18 851 25.13 6.9 44.4 74 2.5 36.5
03:15 1022 30.18 851 25.13 7 44.7 72 2.3 36.1
03:20 1022 30.18 851 25.13 7.6 45.7 69 2.3 36.2
03:25 1022 30.18 851 25.13 7.9 46.2 71 2.9 37.2
03:30 1022 30.18 851 25.13 7.8 46.1 71 2.9 37.2
03:35 1022 30.18 851 25.13 7.7 45.8 72 3 37.4
03:40 1022 30.18 851 25.13 7.3 45.2 74 3 37.5
03:45 1022 30.18 851 25.13 7.1 44.8 75 3 37.3
03:50 1022 30.18 851 25.13 7 44.6 75 2.9 37.2
03:55 1022 30.18 851 25.13 6.8 44.3 76 2.9 37.1
04:00 1022 30.18 851 25.13 6.9 44.4 75 2.7 36.9
04:05 1022 30.18 851 25.13 6.6 43.9 76 2.6 36.8
04:10 1022 30.18 851 25.13 6.9 44.4 73 2.4 36.4
04:15 1022 30.18 851 25.13 7.3 45.1 74 2.9 37.3
04:20 1022 30.18 851 25.13 7.2 44.9 74 2.9 37.2
04:25 1022 30.18 851 25.13 7 44.6 75 2.9 37.3
04:30 1022 30.18 851 25.13 7 44.6 75 2.9 37.3
04:35 1022 30.18 851 25.13 6.8 44.3 76 2.9 37.2
04:40 1022 30.18 851 25.13 6.6 43.8 77 2.8 37
04:45 1021 30.15 851 25.13 6.5 43.7 77 2.7 36.8
04:50 1021 30.15 851 25.13 6.4 43.6 76 2.6 36.7
04:55 1021 30.15 851 25.13 6.4 43.5 76 2.4 36.3
05:00 1021 30.15 851 25.13 6.7 44 75 2.5 36.5
05:05 1021 30.15 851 25.13 6.6 43.9 75 2.5 36.6
05:10 1021 30.15 851 25.13 7 44.5 74 2.6 36.7
05:15 1021 30.15 851 25.13 6.9 44.3 75 2.7 36.9
05:20 1021 30.15 851 25.13 6.7 44 76 2.7 36.9
05:25 1021 30.15 850 25.1 6.5 43.8 76 2.7 36.8
05:30 1021 30.15 850 25.1 6.3 43.4 77 2.7 36.8
05:35 1021 30.15 850 25.1 6.3 43.3 78 2.7 36.8
05:40 1021 30.15 850 25.1 6.3 43.3 78 2.7 36.9
05:45 1021 30.15 850 25.1 6.4 43.4 77 2.7 36.8
05:50 1021 30.15 850 25.1 6.5 43.6 76 2.6 36.7
05:55 1021 30.15 850 25.1 6.6 44 75 2.6 36.7
06:00 1021 30.15 850 25.1 6.9 44.5 74 2.6 36.6
06:05 1021 30.15 850 25.1 7.2 44.9 72 2.5 36.6
06:10 1021 30.15 850 25.1 7.5 45.6 71 2.6 36.7
06:15 1021 30.15 850 25.1 7.7 45.8 71 2.8 37
06:20 1021 30.15 850 25.1 7.9 46.2 70 2.8 37
06:25 1021 30.15 850 25.1 8 46.4 70 2.9 37.3
06:30 1021 30.15 850 25.1 8 46.5 69 2.8 37
06:35 1021 30.15 850 25.1 8.2 46.8 69 2.8 37.1
06:40 1021 30.15 850 25.1 8.5 47.3 68 3 37.3
06:45 1021 30.15 850 25.1 8.7 47.7 67 3 37.4
06:50 1021 30.15 850 25.1 8.8 47.9 68 3.2 37.7
06:55 1021 30.15 850 25.1 8.9 48 67 3.2 37.7
07:00 1021 30.15 850 25.1 9.2 48.5 66 3.2 37.7
07:05 1021 30.15 850 25.1 9.6 49.3 64 3.1 37.6
07:10 1021 30.15 850 25.1 9.8 49.7 64 3.5 38.2
07:15 1021 30.15 850 25.1 10.3 50.5 62 3.4 38.1
07:20 1021 30.15 850 25.1 10.8 51.4 60 3.5 38.2
07:25 1021 30.15 850 25.1 10.9 51.6 61 3.7 38.6
07:30 1021 30.15 850 25.1 11.2 52.1 61 3.9 39
07:35 1021 30.15 850 25.1 11.5 52.6 59 3.7 38.7
07:40 1021 30.15 850 25.1 11.8 53.2 56 3.4 38.2
07:45 1021 30.15 850 25.1 12.3 54.2 54 3.3 37.9
07:50 1021 30.15 850 25.1 12.8 55 53 3.5 38.3
07:55 1021 30.15 850 25.1 12.9 55.3 52 3.5 38.3
08:00 1021 30.15 850 25.1 13.4 56.2 51 3.6 38.4
08:05 1021 30.15 850 25.1 13.7 56.6 50 3.5 38.3
08:10 1021 30.15 850 25.1 13.8 56.8 50 3.7 38.7
08:15 1021 30.15 850 25.1 13.6 56.5 49 3.1 37.5
08:20 1021 30.15 850 25.1 14.2 57.5 48 3.2 37.8
08:25 1021 30.15 850 25.1 14.3 57.7 47 3.3 38
08:30 1021 30.15 850 25.1 14.6 58.3 47 3.5 38.2
08:35 1021 30.15 850 25.1 15 59.1 46 3.5 38.2
08:40 1021 30.15 850 25.1 14.8 58.6 47 3.7 38.7
08:45 1020 30.12 850 25.1 14.7 58.4 48 3.7 38.7
08:50 1020 30.12 850 25.1 14.8 58.7 46 3.5 38.3
08:55 1020 30.12 850 25.1 15.7 60.3 44 3.6 38.4
09:00 1020 30.12 850 25.1 15.7 60.3 46 4.3 39.7
09:05 1020 30.12 849 25.07 16.1 61 43 3.7 38.6
09:10 1020 30.12 849 25.07 16.7 62 43 4.2 39.6
09:15 1020 30.12 849 25.07 16.7 62 43 4 39.2
09:20 1020 30.12 849 25.07 16.8 62.2 41 3.6 38.4
09:25 1020 30.12 849 25.07 16.9 62.5 41 3.5 38.4
09:30 1020 30.12 849 25.07 16.1 60.9 42 3.3 37.9
09:35 1020 30.12 849 25.07 16.6 61.8 40 3 37.4
09:40 1020 30.12 849 25.07 17.4 63.4 38 3.2 37.8
09:45 1020 30.12 849 25.07 17.3 63.1 41 4 39.2
09:50 1020 30.12 849 25.07 17.1 62.7 39 3.3 37.9
09:55 1020 30.12 849 25.07 17.3 63.1 41 4 39.1
10:00 1020 30.12 849 25.07 16.6 61.9 41 3.3 38
10:05 1020 30.12 849 25.07 17.5 63.6 37 2.9 37.2
10:10 1020 30.12 849 25.07 18.2 64.8 36 2.9 37.2
10:15 1020 30.12 849 25.07 18.7 65.6 34 2.6 36.7
10:20 1020 30.12 849 25.07 17.7 63.8 38 3.1 37.7
10:25 1020 30.12 849 25.07 17.9 64.2 35 2.5 36.5
10:30 1020 30.12 849 25.07 18.3 65 35 2.8 37
10:35 1020 30.12 849 25.07 19 66.2 33 2.5 36.5
10:40 1020 30.12 849 25.07 19.6 67.3 33 3.3 37.9
10:45 1020 30.12 849 25.07 20.4 68.7 31 3.1 37.6
10:50 1020 30.12 849 25.07 20.3 68.5 31 2.8 37.1
10:55 1019 30.09 849 25.07 20.1 68.2 31 2.6 36.7
11:00 1019 30.09 849 25.07 19.7 67.5 32 2.7 36.8
11:05 1019 30.09 849 25.07 20 68 31 2.6 36.7
11:10 1019 30.09 848 25.04 20.1 68.3 33 3.5 38.2
11:15 1019 30.09 848 25.04 19.6 67.3 31 2.2 36
11:20 1019 30.09 848 25.04 20.3 68.5 29 2 35.6
11:25 1019 30.09 848 25.04 21 69.7 29 2.4 36.3
11:30 1019 30.09 848 25.04 20.6 69.2 29 2.2 35.9
11:35 1019 30.09 848 25.04 20.6 69.1 30 2.5 36.5
11:40 1019 30.09 848 25.04 21.2 70.2 29 2.5 36.5
11:45 1019 30.09 848 25.04 20.7 69.3 30 2.6 36.7
11:50 1019 30.09 848 25.04 20.8 69.5 29 2.2 35.9
11:55 1019 30.09 848 25.04 22.1 71.8 26 2.1 35.8
12:00 1019 30.09 848 25.04 22.2 72 27 2.3 36.2
12:05 1019 30.09 848 25.04 22.6 72.6 24 1.4 34.5
12:10 1019 30.09 848 25.04 22.9 73.3 25 2 35.5
12:15 1019 30.09 848 25.04 22 71.5 27 2.4 36.4
12:20 1018 30.06 848 25.04 22.2 71.9 26 1.7 35.1
12:25 1018 30.06 848 25.04 22.8 73.1 25 2.2 36
12:30 1018 30.06 847 25.01 23.2 73.7 24 1.9 35.4
12:35 1018 30.06 847 25.01 22.3 72.1 25 1.6 34.9
12:40 1018 30.06 847 25.01 21.7 71 28 2.4 36.2
12:45 1018 30.06 847 25.01 21.8 71.3 25 1.3 34.4
12:50 1018 30.06 847 25.01 22.9 73.1 25 1.9 35.5
12:55 1018 30.06 847 25.01 23.2 73.8 25 2.2 35.9
13:00 1018 30.06 847 25.01 23.1 73.5 24 1.8 35.2
13:05 1018 30.06 847 25.01 22.6 72.6 27 2.8 37
13:10 1018 30.06 847 25.01 23.1 73.5 26 2.7 36.8
13:15 1018 30.06 847 25.01 23.8 74.8 23 1.7 35
13:20 1018 30.06 847 25.01 24 75.1 23 1.7 35
13:25 1018 30.06 847 25.01 23.8 74.8 25 2.9 37.3
13:30 1018 30.06 847 25.01 23.5 74.4 24 2.2 36
13:35 1018 30.06 847 25.01 24 75.1 23 1.8 35.2
13:40 1017 30.03 847 25.01 24.5 76.1 22 1.9 35.4
13:45 1017 30.03 847 25.01 25 76.9 21 1.6 34.9
13:50 1017 30.03 847 25.01 24.9 76.8 23 2.3 36.2
13:55 1017 30.03 846 24.98 24.7 76.5 23 2.2 35.9
14:00 1017 30.03 846 24.98 23.8 74.9 24 2.3 36.1
14:05 1017 30.03 846 24.98 24.3 75.7 23 1.9 35.4
14:10 1017 30.03 846 24.98 24.2 75.6 24 2.3 36.2
14:15 1017 30.03 846 24.98 24.8 76.6 23 2.5 36.5
14:20 1017 30.03 846 24.98 24.9 76.9 22 1.9 35.5
14:25 1017 30.03 846 24.98 24.4 76 24 2.5 36.5
14:30 1017 30.03 846 24.98 23 73.4 25 2 35.6
14:35 1017 30.03 846 24.98 23.8 74.8 24 2 35.7
14:40 1017 30.03 846 24.98 24.7 76.5 23 2.2 35.9
14:45 1017 30.03 846 24.98 24.5 76 23 2.4 36.3
14:50 1016 30 846 24.98 24.5 76 23 2.2 35.9
14:55 1016 30 846 24.98 25 77 22 2.2 36
15:00 1016 30 846 24.98 25.7 78.3 21 1.9 35.4
15:05 1016 30 845 24.95 25.4 77.8 22 2.3 36.1
15:10 1016 30 845 24.95 25.4 77.8 21 2 35.7
15:15 1016 30 845 24.95 25.6 78.1 21 1.8 35.3
15:20 1016 30 845 24.95 25.5 77.9 21 1.8 35.3
15:25 1016 30 845 24.95 25.5 77.8 21 2 35.6
15:30 1016 30 845 24.95 24.9 76.8 22 2.3 36.1
15:35 1016 30 845 24.95 24.9 76.7 23 2.7 36.8
15:40 1016 30 845 24.95 25.7 78.2 21 2 35.6
15:45 1016 30 845 24.95 26.6 79.8 20 2.2 36
15:50 1016 30 845 24.95 26.2 79.2 21 2.3 36.1
15:55 1016 30 845 24.95 26.5 79.7 20 1.7 35
16:00 1016 30 845 24.95 25.8 78.5 22 2.7 36.9
16:05 1016 30 845 24.95 25 77 23 2.5 36.6
16:10 1016 30 845 24.95 24.8 76.7 22 1.7 35.1
16:15 1016 30 845 24.95 25.7 78.3 21 2.1 35.7
16:20 1016 30 845 24.95 26.1 79 21 2.6 36.7
16:25 1016 30 845 24.95 24.8 76.6 24 2.9 37.2
16:30 1016 30 845 24.95 24.8 76.7 22 1.9 35.4
16:35 1015 29.97 845 24.95 24.6 76.2 23 2.3 36.1
16:40 1015 29.97 845 24.95 24.9 76.8 22 1.7 35
16:45 1015 29.97 845 24.95 25 77 23 2.5 36.4
16:50 1015 29.97 845 24.95 25.5 77.9 21 1.8 35.3
16:55 1015 29.97 844 24.92 25.3 77.5 22 2.3 36.1
17:00 1015 29.97 844 24.92 24.8 76.6 23 2.6 36.8
17:05 1015 29.97 844 24.92 24.4 75.8 23 2 35.7
17:10 1015 29.97 844 24.92 24.4 76 23 2.5 36.5
17:15 1015 29.97 844 24.92 24.4 75.8 23 2.4 36.4
17:20 1015 29.97 844 24.92 24.8 76.6 22 2 35.7
17:25 1015 29.97 844 24.92 25.2 77.3 22 2.4 36.3
17:30 1015 29.97 844 24.92 25.1 77.2 22 2.2 35.9
17:35 1015 29.97 844 24.92 25.3 77.6 22 2.2 36
17:40 1015 29.97 844 24.92 24.9 76.8 23 2.7 36.9
17:45 1015 29.97 844 24.92 24.5 76.1 23 2.1 35.8
17:50 1015 29.97 844 24.92 24.5 76.1 22 1.7 35.1
17:55 1015 29.97 844 24.92 24.4 75.8 23 2.3 36.1
18:00 1015 29.97 844 24.92 24.2 75.6 25 3.3 38
18:05 1015 29.97 844 24.92 24.1 75.4 25 3 37.4
18:10 1015 29.97 844 24.92 24 75.3 24 2.4 36.3
18:15 1015 29.97 844 24.92 23.8 74.9 26 3.3 37.9
18:20 1015 29.97 844 24.92 23.6 74.5 26 3.1 37.5
18:25 1015 29.97 844 24.92 23.5 74.2 28 4.1 39.3
18:30 1015 29.97 844 24.92 23.3 74 27 3.6 38.6
18:35 1015 29.97 844 24.92 23.2 73.7 28 3.7 38.7
18:40 1015 29.97 844 24.92 22.9 73.3 28 3.8 38.8
18:45 1015 29.97 844 24.92 22.8 73.1 28 3.6 38.5
18:50 1015 29.97 844 24.92 22.7 72.8 29 3.8 38.8
18:55 1015 29.97 844 24.92 22.5 72.5 31 4.5 40.1
19:00 1015 29.97 844 24.92 22.4 72.2 32 5 41
19:05 1015 29.97 844 24.92 21.6 70.9 36 6.2 43.1
19:10 1015 29.97 844 24.92 21.1 70 39 6.8 44.3
19:15 1015 29.97 844 24.92 20.7 69.2 39 6.6 43.8
19:20 1015 29.97 844 24.92 20.3 68.5 38 5.8 42.5
19:25 1015 29.97 844 24.92 19.9 67.8 41 6.2 43.2
19:30 1015 29.97 844 24.92 19.6 67.3 42 6.5 43.8
19:35 1015 29.97 844 24.92 19.5 67 41 5.9 42.7
19:40 1015 29.97 844 24.92 19.1 66.3 44 6.8 44.3
19:45 1015 29.97 844 24.92 18.9 66.1 41 5.6 42
19:50 1015 29.97 844 24.92 18.8 65.9 42 6 42.7
19:55 1015 29.97 844 24.92 18.7 65.7 43 6 42.9
20:00 1015 29.97 844 24.92 18.5 65.2 43 5.6 42.1
20:05 1015 29.97 844 24.92 18.3 65 45 6.4 43.6
20:10 1015 29.97 844 24.92 17.9 64.1 48 6.9 44.4
20:15 1015 29.97 844 24.92 17.3 63.1 50 6.8 44.2
20:20 1015 29.97 844 24.92 17.2 63 46 5.6 42.1
20:25 1015 29.97 844 24.92 17.5 63.4 43 4.9 40.9
20:30 1015 29.97 844 24.92 17.8 64 42 4.7 40.5
20:35 1015 29.97 844 24.92 18 64.3 40 4.3 39.7
20:40 1015 29.97 844 24.92 18.1 64.6 39 4.2 39.5
20:45 1015 29.97 844 24.92 18 64.4 41 4.6 40.3
20:50 1015 29.97 844 24.92 17.8 64 42 4.9 40.8
20:55 1015 29.97 844 24.92 17.7 63.9 41 4.4 39.9
21:00 1015 29.97 844 24.92 17.8 64.1 41 4.4 39.9
21:05 1015 29.97 844 24.92 18 64.4 43 5.5 41.9
21:10 1015 29.97 844 24.92 18.4 65.2 35 2.9 37.2
21:15 1015 29.97 844 24.92 18.9 66 34 2.7 36.8
21:20 1015 29.97 844 24.92 19.2 66.5 34 2.9 37.2
21:25 1015 29.97 844 24.92 19 66.2 34 3 37.3
21:30 1015 29.97 844 24.92 19 66.1 34 2.8 37.1
21:35 1015 29.97 844 24.92 19.1 66.4 35 3.6 38.4
21:40 1015 29.97 844 24.92 18.9 66 35 3.3 37.9
21:45 1015 29.97 844 24.92 18.8 65.8 37 3.9 39.1
21:50 1015 29.97 844 24.92 18.4 65.2 38 4.2 39.5
21:55 1015 29.97 845 24.95 18.2 64.7 40 4.5 40.2
22:00 1015 29.97 845 24.95 17.9 64.2 39 3.9 39.1
22:05 1015 29.97 844 24.92 17.8 64.1 39 3.8 38.8
22:10 1015 29.97 845 24.95 17.8 64 39 3.9 39
22:15 1015 29.97 845 24.95 17.6 63.6 39 3.7 38.7
22:20 1015 29.97 845 24.95 17.5 63.5 41 4.1 39.4
22:25 1015 29.97 845 24.95 17.2 63 42 4.1 39.5
22:30 1015 29.97 845 24.95 16.9 62.4 46 5.3 41.6
22:35 1015 29.97 845 24.95 16.6 61.8 47 5.3 41.5
22:40 1015 29.97 845 24.95 16.6 61.8 45 4.7 40.4
22:45 1015 29.97 845 24.95 16.8 62.2 43 4.3 39.8
22:50 1016 30 845 24.95 16.8 62.3 41 3.8 38.8
22:55 1016 30 845 24.95 16.8 62.3 41 3.7 38.6
23:00 1016 30 845 24.95 16.7 62.1 42 3.8 38.8
23:05 1016 30 845 24.95 16.5 61.8 44 4.5 40.1
23:10 1016 30 845 24.95 16.2 61.2 44 4.1 39.4
23:15 1016 30 845 24.95 15.8 60.5 46 4.2 39.6
23:20 1016 30 845 24.95 15.7 60.2 46 4.1 39.4
23:25 1016 30 845 24.95 15.7 60.3 45 3.9 39
23:30 1016 30 845 24.95 15.8 60.4 44 3.8 38.8
23:35 1016 30 845 24.95 16 60.8 44 3.7 38.7
23:40 1016 30 845 24.95 16.3 61.3 41 3.2 37.8
23:45 1016 30 845 24.95 16.5 61.7 42 3.7 38.7
23:50 1016 30 845 24.95 16.4 61.5 43 4 39.1
23:55 1016 30 845 24.95 16 60.7 45 4.2 39.6
24:00 1016 30 845 24.95 15.4 59.8 47 4.2 39.6